Time;durP1;ratioP1;P1;durP2;ratioP2;P2;SDS_P1;SDS_P2;PMS_P1;PMS_P2;Temp;Humidity;BMP_temperature;BMP_pressure;BME280_temperature;BME280_humidity;BME280_pressure;Samples;Min_cycle;Max_cycle;Signal;HPM_P1;HPM_P2
2022/01/16 00:04:11;;;;;;;35.83;12.85;;;;;;;;;;5043176;28;20033;-51
2022/01/16 00:06:39;;;;;;;33.40;13.00;;;;;;;;;;5045098;28;20032;-53
2022/01/16 00:09:05;;;;;;;35.00;13.77;;;;;;;;;;5036368;28;20033;-51
2022/01/16 00:11:31;;;;;;;39.28;14.48;;;;;;;;;;5040423;28;20274;-53
2022/01/16 00:13:57;;;;;;;38.78;15.30;;;;;;;;;;5041609;28;20318;-50
2022/01/16 00:16:23;;;;;;;36.25;14.40;;;;;;;;;;5042705;28;20031;-52
2022/01/16 00:18:49;;;;;;;44.05;12.43;;;;;;;;;;5040870;28;20017;-50
2022/01/16 00:21:40;;;;;;;35.13;10.70;;;;;;;;;;5039511;28;20033;-50
2022/01/16 00:24:07;;;;;;;37.45;12.48;;;;;;;;;;5039525;28;20134;-51
2022/01/16 00:26:33;;;;;;;34.28;11.05;;;;;;;;;;5037216;28;20033;-52
2022/01/16 00:28:59;;;;;;;74.10;11.25;;;;;;;;;;5039537;28;20511;-49
2022/01/16 00:31:24;;;;;;;28.75;9.15;;;;;;;;;;5042755;28;20024;-50
2022/01/16 00:33:51;;;;;;;25.70;8.85;;;;;;;;;;5032810;28;20407;-50
2022/01/16 00:36:19;;;;;;;24.67;8.30;;;;;;;;;;5039109;28;20116;-49
2022/01/16 00:38:46;;;;;;;28.95;8.90;;;;;;;;;;5035001;28;20025;-50
2022/01/16 00:41:13;;;;;;;25.50;7.70;;;;;;;;;;5035601;28;20028;-52
2022/01/16 00:43:39;;;;;;;22.05;8.45;;;;;;;;;;5038450;28;20020;-52
2022/01/16 00:46:06;;;;;;;17.95;8.25;;;;;;;;;;5038344;28;20144;-52
2022/01/16 00:48:32;;;;;;;35.35;8.82;;;;;;;;;;5035945;28;20286;-53
2022/01/16 00:50:58;;;;;;;28.17;8.90;;;;;;;;;;5037842;28;20109;-52
2022/01/16 00:53:23;;;;;;;25.38;8.20;;;;;;;;;;5038657;28;20591;-51
2022/01/16 00:55:49;;;;;;;35.38;9.32;;;;;;;;;;5041754;28;20518;-51
2022/01/16 00:58:14;;;;;;;21.63;8.07;;;;;;;;;;5040532;28;20041;-50
2022/01/16 01:00:40;;;;;;;32.13;9.52;;;;;;;;;;5034922;28;20098;-53
2022/01/16 01:03:06;;;;;;;29.83;9.38;;;;;;;;;;5036981;28;20119;-52
2022/01/16 01:05:33;;;;;;;23.33;8.55;;;;;;;;;;5039117;28;20037;-53
2022/01/16 01:07:59;;;;;;;22.85;9.18;;;;;;;;;;5038698;28;20036;-51
2022/01/16 01:10:30;;;;;;;18.73;8.80;;;;;;;;;;5035600;28;20044;-52
2022/01/16 01:13:07;;;;;;;20.80;8.02;;;;;;;;;;5031869;28;20061;-51
2022/01/16 01:15:41;;;;;;;26.67;7.90;;;;;;;;;;5040248;28;20072;-53
2022/01/16 01:18:07;;;;;;;28.30;9.07;;;;;;;;;;5038163;28;20272;-52
2022/01/16 01:20:32;;;;;;;37.03;8.10;;;;;;;;;;5031267;28;20481;-51
2022/01/16 01:22:58;;;;;;;26.15;8.23;;;;;;;;;;5039831;28;20047;-52
2022/01/16 01:25:23;;;;;;;18.65;6.60;;;;;;;;;;5039456;28;20031;-50
2022/01/16 01:27:49;;;;;;;22.17;8.57;;;;;;;;;;5042334;28;20123;-51
2022/01/16 01:30:17;;;;;;;40.08;8.73;;;;;;;;;;5036195;28;20029;-51
2022/01/16 01:32:46;;;;;;;26.13;7.70;;;;;;;;;;5040129;28;20634;-50
2022/01/16 01:35:14;;;;;;;34.50;9.35;;;;;;;;;;5041363;28;20032;-54
2022/01/16 01:37:40;;;;;;;22.80;7.75;;;;;;;;;;5041072;28;20025;-50
2022/01/16 01:40:10;;;;;;;24.00;8.57;;;;;;;;;;5040238;28;20030;-53
2022/01/16 01:42:43;;;;;;;30.35;8.65;;;;;;;;;;5036392;28;20029;-50
2022/01/16 01:53:22;;;;;;;31.50;7.97;;;;;;;;;;5036271;28;20164;-53
2022/01/16 01:55:47;;;;;;;33.47;8.30;;;;;;;;;;5036598;28;20069;-52
2022/01/16 01:58:16;;;;;;;27.58;8.85;;;;;;;;;;5039547;28;20064;-51
2022/01/16 02:00:42;;;;;;;24.52;8.43;;;;;;;;;;5041749;28;20111;-52
2022/01/16 02:05:43;;;;;;;23.92;8.48;;;;;;;;;;5036182;28;20136;-53
2022/01/16 02:08:09;;;;;;;25.55;8.82;;;;;;;;;;5037208;28;20029;-52
2022/01/16 02:10:37;;;;;;;26.05;8.52;;;;;;;;;;5038639;28;20056;-52
2022/01/16 02:13:06;;;;;;;36.28;10.32;;;;;;;;;;5036716;28;20074;-52
2022/01/16 02:31:32;;;;;;;22.08;9.65;;;;;;;;;;5039418;28;20040;-51
2022/01/16 02:36:50;;;;;;;37.55;10.65;;;;;;;;;;5034259;28;20177;-52
2022/01/16 02:39:17;;;;;;;32.05;10.02;;;;;;;;;;5035380;28;20484;-48
2022/01/16 02:41:44;;;;;;;26.58;11.32;;;;;;;;;;5033695;28;20032;-50
2022/01/16 02:44:30;;;;;;;36.47;11.85;;;;;;;;;;5041751;28;20043;-49
2022/01/16 02:46:57;;;;;;;25.80;10.73;;;;;;;;;;5038659;28;20029;-50
2022/01/16 02:49:34;;;;;;;31.77;10.82;;;;;;;;;;5034965;28;20115;-50
2022/01/16 02:52:05;;;;;;;25.60;10.82;;;;;;;;;;5040009;28;20514;-53
2022/01/16 02:54:35;;;;;;;40.92;10.65;;;;;;;;;;5045181;28;20045;-52
2022/01/16 02:57:02;;;;;;;28.48;10.82;;;;;;;;;;5039825;28;20021;-51
2022/01/16 02:59:28;;;;;;;27.30;11.88;;;;;;;;;;5038755;28;20051;-49
2022/01/16 03:01:54;;;;;;;36.20;12.23;;;;;;;;;;5039227;28;20483;-52
2022/01/16 03:04:19;;;;;;;34.20;12.43;;;;;;;;;;5033499;28;20112;-52
2022/01/16 03:06:46;;;;;;;26.92;12.25;;;;;;;;;;5039551;28;20060;-53
2022/01/16 03:09:13;;;;;;;33.80;11.43;;;;;;;;;;5038459;28;20114;-51
2022/01/16 03:11:46;;;;;;;44.10;11.07;;;;;;;;;;5039635;28;20384;-53
2022/01/16 03:14:13;;;;;;;36.55;12.15;;;;;;;;;;5040384;28;20029;-52
2022/01/16 03:16:45;;;;;;;27.67;10.07;;;;;;;;;;5033546;28;20029;-53
2022/01/16 03:21:57;;;;;;;35.40;10.60;;;;;;;;;;5039616;28;20093;-51
2022/01/16 03:24:39;;;;;;;49.03;13.65;;;;;;;;;;5032530;28;20120;-52
2022/01/16 03:27:14;;;;;;;30.42;12.68;;;;;;;;;;5051006;28;20163;-49
2022/01/16 03:29:42;;;;;;;43.42;13.15;;;;;;;;;;5036025;28;20025;-49
2022/01/16 03:32:10;;;;;;;28.75;10.77;;;;;;;;;;5039328;28;20029;-50
2022/01/16 03:34:36;;;;;;;37.97;13.25;;;;;;;;;;5035421;28;20025;-49
2022/01/16 03:37:03;;;;;;;31.63;11.75;;;;;;;;;;5037309;28;20090;-51
2022/01/16 03:39:28;;;;;;;42.17;11.18;;;;;;;;;;5034324;28;20040;-51
2022/01/16 03:41:55;;;;;;;20.10;8.73;;;;;;;;;;5038057;28;20040;-50
2022/01/16 03:44:21;;;;;;;32.67;12.88;;;;;;;;;;5036696;28;20566;-50
2022/01/16 03:46:47;;;;;;;41.83;12.70;;;;;;;;;;5040666;28;20037;-51
2022/01/16 03:49:19;;;;;;;33.10;10.95;;;;;;;;;;5029289;28;20128;-52
2022/01/16 03:51:46;;;;;;;29.52;12.27;;;;;;;;;;5039873;28;20082;-49
2022/01/16 03:54:15;;;;;;;22.58;8.00;;;;;;;;;;5032608;28;20041;-50
2022/01/16 03:56:41;;;;;;;28.38;9.98;;;;;;;;;;5038003;28;20099;-50
2022/01/16 03:59:07;;;;;;;33.35;12.85;;;;;;;;;;5033450;28;20037;-49
2022/01/16 04:01:33;;;;;;;33.13;12.85;;;;;;;;;;5032811;28;20083;-53
2022/01/16 04:03:59;;;;;;;30.08;12.23;;;;;;;;;;5037206;28;20033;-50
2022/01/16 04:06:25;;;;;;;46.47;14.48;;;;;;;;;;5039070;28;20029;-52
2022/01/16 04:08:55;;;;;;;41.33;13.85;;;;;;;;;;5036095;28;20025;-53
2022/01/16 04:11:23;;;;;;;39.15;13.80;;;;;;;;;;5036519;28;20559;-52
2022/01/16 04:13:52;;;;;;;45.50;13.82;;;;;;;;;;5036558;28;20048;-50
2022/01/16 04:16:19;;;;;;;36.85;12.95;;;;;;;;;;5043040;28;20508;-55
2022/01/16 04:18:49;;;;;;;37.78;12.32;;;;;;;;;;5036330;28;20295;-53
2022/01/16 04:21:14;;;;;;;32.88;9.50;;;;;;;;;;5039728;28;20465;-52
2022/01/16 04:23:40;;;;;;;31.10;12.85;;;;;;;;;;5044290;28;20033;-50
2022/01/16 04:26:05;;;;;;;31.85;13.20;;;;;;;;;;5041790;28;20036;-49
2022/01/16 04:28:31;;;;;;;34.35;12.85;;;;;;;;;;5041828;28;20029;-50
2022/01/16 04:30:56;;;;;;;35.63;14.10;;;;;;;;;;5042171;28;20041;-52
2022/01/16 04:33:22;;;;;;;33.05;12.75;;;;;;;;;;5039750;28;20392;-51
2022/01/16 04:35:47;;;;;;;31.30;13.18;;;;;;;;;;5043153;28;20450;-53
2022/01/16 04:38:13;;;;;;;28.75;12.57;;;;;;;;;;5042144;28;20036;-52
2022/01/16 04:43:47;;;;;;;30.27;12.18;;;;;;;;;;5041144;28;20163;-51
2022/01/16 04:46:11;;;;;;;35.35;11.40;;;;;;;;;;5038198;28;20063;-51
2022/01/16 04:48:36;;;;;;;35.40;13.30;;;;;;;;;;5043321;28;20609;-50
2022/01/16 04:51:02;;;;;;;36.53;15.50;;;;;;;;;;5041208;28;20245;-51
2022/01/16 04:53:28;;;;;;;42.05;15.82;;;;;;;;;;5041403;28;20142;-49
2022/01/16 04:55:53;;;;;;;47.33;18.67;;;;;;;;;;5038223;28;20056;-50
2022/01/16 04:58:21;;;;;;;36.75;12.95;;;;;;;;;;5035918;28;20032;-51
2022/01/16 05:00:46;;;;;;;43.78;16.92;;;;;;;;;;5040998;28;20032;-52
2022/01/16 05:03:12;;;;;;;29.83;13.75;;;;;;;;;;5041553;28;20656;-51
2022/01/16 05:05:38;;;;;;;32.42;14.10;;;;;;;;;;5041652;28;20171;-51
2022/01/16 05:08:03;;;;;;;38.20;17.13;;;;;;;;;;5038921;28;20032;-52
2022/01/16 05:10:29;;;;;;;34.63;14.85;;;;;;;;;;5037693;28;20091;-52
2022/01/16 05:13:04;;;;;;;42.83;15.13;;;;;;;;;;5055368;28;20307;-52
2022/01/16 05:18:14;;;;;;;32.10;12.57;;;;;;;;;;5034339;28;20063;-52
2022/01/16 05:20:39;;;;;;;31.35;14.80;;;;;;;;;;5022370;28;20061;-52
2022/01/16 05:23:05;;;;;;;45.03;14.45;;;;;;;;;;5035682;28;20036;-52
2022/01/16 05:25:31;;;;;;;35.60;15.55;;;;;;;;;;5040914;28;20030;-52
2022/01/16 05:27:56;;;;;;;38.33;13.57;;;;;;;;;;5041514;28;20041;-53
2022/01/16 05:30:22;;;;;;;25.42;10.73;;;;;;;;;;5034797;28;20041;-51
2022/01/16 05:32:47;;;;;;;44.20;13.18;;;;;;;;;;5036650;28;20057;-53
2022/01/16 05:35:13;;;;;;;26.88;11.50;;;;;;;;;;5041522;28;20048;-50
2022/01/16 05:37:38;;;;;;;42.95;15.25;;;;;;;;;;5038935;28;20021;-49
2022/01/16 05:40:05;;;;;;;38.40;14.85;;;;;;;;;;5038756;28;20041;-50
2022/01/16 05:42:32;;;;;;;31.98;12.68;;;;;;;;;;5040394;28;20032;-52
2022/01/16 05:44:58;;;;;;;46.42;15.50;;;;;;;;;;5031407;28;20041;-53
2022/01/16 05:47:24;;;;;;;39.10;13.50;;;;;;;;;;5024052;28;20036;-51
2022/01/16 05:49:49;;;;;;;39.78;16.30;;;;;;;;;;5041811;28;20062;-51
2022/01/16 05:52:15;;;;;;;41.25;12.30;;;;;;;;;;5054661;28;20037;-51
2022/01/16 05:54:41;;;;;;;41.85;16.77;;;;;;;;;;5034063;28;20060;-50
2022/01/16 05:57:07;;;;;;;38.38;15.82;;;;;;;;;;5040237;28;20029;-53
2022/01/16 05:59:32;;;;;;;45.78;16.88;;;;;;;;;;5029490;28;20044;-52
2022/01/16 06:01:58;;;;;;;43.15;14.02;;;;;;;;;;5037784;28;20021;-53
2022/01/16 06:04:24;;;;;;;18.10;8.05;;;;;;;;;;5039734;28;20074;-53
2022/01/16 06:06:50;;;;;;;49.50;14.32;;;;;;;;;;5038871;28;20037;-54
2022/01/16 06:09:15;;;;;;;37.75;13.60;;;;;;;;;;5032865;28;20045;-51
2022/01/16 06:11:41;;;;;;;34.15;12.32;;;;;;;;;;5039281;28;20041;-53
2022/01/16 06:14:06;;;;;;;25.48;9.10;;;;;;;;;;5037742;28;20102;-54
2022/01/16 06:16:35;;;;;;;31.48;13.88;;;;;;;;;;5033738;28;20040;-54
2022/01/16 06:19:00;;;;;;;36.72;14.00;;;;;;;;;;5037371;28;20040;-54
2022/01/16 06:21:26;;;;;;;22.77;11.18;;;;;;;;;;5039363;28;20388;-53
2022/01/16 06:23:52;;;;;;;32.65;14.82;;;;;;;;;;5034556;28;20531;-53
2022/01/16 06:26:17;;;;;;;30.52;11.25;;;;;;;;;;5053843;28;20033;-54
2022/01/16 06:28:43;;;;;;;39.88;16.05;;;;;;;;;;5034700;28;20457;-52
2022/01/16 06:31:08;;;;;;;38.15;16.17;;;;;;;;;;5035501;28;20048;-53
2022/01/16 06:33:34;;;;;;;23.92;12.10;;;;;;;;;;5039173;28;20534;-53
2022/01/16 06:36:01;;;;;;;27.20;9.82;;;;;;;;;;5037484;28;20465;-50
2022/01/16 06:38:27;;;;;;;41.22;15.57;;;;;;;;;;5040438;28;20414;-51
2022/01/16 06:40:52;;;;;;;28.60;12.75;;;;;;;;;;5037188;28;20036;-54
2022/01/16 06:43:18;;;;;;;46.70;17.25;;;;;;;;;;5037022;28;20118;-51
2022/01/16 06:45:44;;;;;;;44.60;15.82;;;;;;;;;;5037583;28;20065;-52
2022/01/16 06:48:09;;;;;;;36.78;17.38;;;;;;;;;;5037182;28;20386;-50
2022/01/16 06:50:35;;;;;;;35.13;15.13;;;;;;;;;;5038405;28;20036;-51
2022/01/16 06:53:00;;;;;;;53.47;19.20;;;;;;;;;;5037139;28;20094;-53
2022/01/16 06:55:26;;;;;;;37.00;12.52;;;;;;;;;;5038635;28;20427;-52
2022/01/16 06:57:51;;;;;;;37.20;16.38;;;;;;;;;;5037800;28;20033;-50
2022/01/16 07:00:17;;;;;;;47.08;17.50;;;;;;;;;;5051553;28;20037;-51
2022/01/16 07:02:42;;;;;;;51.35;19.77;;;;;;;;;;5033301;28;20037;-53
2022/01/16 07:05:09;;;;;;;59.55;21.52;;;;;;;;;;5033385;28;20562;-53
2022/01/16 07:07:34;;;;;;;54.35;21.48;;;;;;;;;;5040364;28;20558;-54
2022/01/16 07:10:00;;;;;;;40.70;16.27;;;;;;;;;;5035656;28;20075;-54
2022/01/16 07:12:25;;;;;;;54.25;21.13;;;;;;;;;;5040561;28;20032;-54
2022/01/16 07:14:51;;;;;;;43.58;18.73;;;;;;;;;;5033895;28;20046;-53
2022/01/16 07:17:16;;;;;;;47.78;18.08;;;;;;;;;;5037970;28;20035;-53
2022/01/16 07:19:42;;;;;;;47.30;20.02;;;;;;;;;;5040969;28;20113;-54
2022/01/16 07:22:07;;;;;;;50.20;19.92;;;;;;;;;;5036379;28;20082;-54
2022/01/16 07:24:33;;;;;;;39.28;17.33;;;;;;;;;;5036417;28;20036;-54
2022/01/16 07:27:00;;;;;;;48.33;20.08;;;;;;;;;;5033592;28;20115;-53
2022/01/16 07:29:30;;;;;;;45.40;18.65;;;;;;;;;;5033139;28;20061;-52
2022/01/16 07:31:56;;;;;;;49.83;21.20;;;;;;;;;;5037798;28;20036;-53
2022/01/16 07:34:22;;;;;;;45.45;18.17;;;;;;;;;;5035991;28;20036;-51
2022/01/16 07:36:48;;;;;;;47.33;15.80;;;;;;;;;;5034997;28;20029;-53
2022/01/16 07:39:13;;;;;;;41.45;17.42;;;;;;;;;;5034298;28;20518;-54
2022/01/16 07:41:39;;;;;;;55.10;19.30;;;;;;;;;;5038096;28;20033;-53
2022/01/16 07:44:05;;;;;;;45.58;18.30;;;;;;;;;;5036680;28;20457;-52
2022/01/16 07:46:30;;;;;;;44.65;17.85;;;;;;;;;;5035495;28;20373;-50
2022/01/16 07:48:56;;;;;;;50.83;16.27;;;;;;;;;;5041111;28;20106;-50
2022/01/16 07:51:22;;;;;;;39.13;15.10;;;;;;;;;;5042756;28;20036;-49
2022/01/16 07:53:47;;;;;;;36.55;16.27;;;;;;;;;;5039533;28;20039;-50
2022/01/16 07:56:13;;;;;;;56.83;16.35;;;;;;;;;;5040381;28;20079;-49
2022/01/16 07:58:39;;;;;;;34.92;13.10;;;;;;;;;;5038777;28;20028;-49
2022/01/16 08:01:04;;;;;;;42.33;14.93;;;;;;;;;;5034698;28;20163;-51
2022/01/16 08:03:30;;;;;;;38.40;14.43;;;;;;;;;;5042913;28;20079;-50
2022/01/16 08:05:56;;;;;;;36.60;13.65;;;;;;;;;;5037854;28;20131;-52
2022/01/16 08:08:21;;;;;;;30.00;13.02;;;;;;;;;;5036125;28;20033;-52
2022/01/16 08:10:47;;;;;;;33.38;12.57;;;;;;;;;;5039105;28;20055;-53
2022/01/16 08:13:12;;;;;;;31.58;12.00;;;;;;;;;;5041148;28;20444;-54
2022/01/16 08:15:38;;;;;;;27.88;11.65;;;;;;;;;;5040799;28;20021;-54
2022/01/16 08:18:03;;;;;;;28.48;11.38;;;;;;;;;;5031381;28;20043;-53
2022/01/16 08:20:29;;;;;;;28.83;11.57;;;;;;;;;;5037044;28;20033;-54
2022/01/16 08:22:55;;;;;;;24.63;11.02;;;;;;;;;;5070345;28;20530;-53
2022/01/16 08:25:22;;;;;;;25.55;10.02;;;;;;;;;;5042109;28;20036;-52
2022/01/16 08:27:47;;;;;;;23.08;9.48;;;;;;;;;;5034323;28;20037;-52
2022/01/16 08:30:13;;;;;;;20.55;8.40;;;;;;;;;;5036903;28;20040;-53
2022/01/16 08:32:39;;;;;;;22.00;8.57;;;;;;;;;;5038591;28;20087;-54
2022/01/16 08:35:06;;;;;;;20.13;7.05;;;;;;;;;;5036379;28;20036;-52
2022/01/16 08:37:32;;;;;;;33.22;7.40;;;;;;;;;;5039068;28;20089;-52
2022/01/16 08:39:57;;;;;;;27.75;7.30;;;;;;;;;;5039738;28;20033;-53
2022/01/16 08:42:23;;;;;;;17.15;6.72;;;;;;;;;;5038142;28;20672;-53
2022/01/16 08:44:51;;;;;;;26.83;6.30;;;;;;;;;;5042015;28;20532;-52
2022/01/16 08:47:17;;;;;;;23.95;6.03;;;;;;;;;;5037933;28;20035;-53
2022/01/16 08:49:43;;;;;;;16.13;5.60;;;;;;;;;;5040618;28;21781;-52
2022/01/16 08:52:09;;;;;;;26.45;5.82;;;;;;;;;;5044648;28;20029;-51
2022/01/16 08:54:35;;;;;;;18.52;5.60;;;;;;;;;;5043497;28;20125;-50
2022/01/16 08:57:04;;;;;;;16.48;4.72;;;;;;;;;;5036838;28;20124;-51
2022/01/16 08:59:29;;;;;;;16.42;4.63;;;;;;;;;;5035219;28;20537;-50
2022/01/16 09:01:55;;;;;;;12.35;5.18;;;;;;;;;;5040991;28;20028;-51
2022/01/16 09:04:21;;;;;;;25.17;5.57;;;;;;;;;;5045865;28;20234;-49
2022/01/16 09:06:46;;;;;;;26.90;5.43;;;;;;;;;;5037651;28;20456;-48
2022/01/16 09:09:12;;;;;;;25.55;5.70;;;;;;;;;;5035768;28;20040;-49
2022/01/16 09:11:37;;;;;;;36.08;4.72;;;;;;;;;;5038486;28;20124;-49
2022/01/16 09:14:03;;;;;;;18.63;6.10;;;;;;;;;;5038483;28;20037;-51
2022/01/16 09:16:30;;;;;;;17.17;4.72;;;;;;;;;;5035978;28;20032;-52
2022/01/16 09:18:56;;;;;;;28.63;5.65;;;;;;;;;;5032266;28;20033;-50
2022/01/16 09:21:22;;;;;;;30.02;5.00;;;;;;;;;;5039470;28;20414;-52
2022/01/16 09:23:49;;;;;;;26.48;4.78;;;;;;;;;;5035631;28;20039;-52
2022/01/16 09:26:15;;;;;;;18.10;3.88;;;;;;;;;;5042459;28;20029;-51
2022/01/16 09:28:42;;;;;;;16.17;4.60;;;;;;;;;;5039359;28;20029;-49
2022/01/16 09:31:08;;;;;;;25.40;4.22;;;;;;;;;;5040164;28;20044;-50
2022/01/16 09:33:34;;;;;;;18.33;3.22;;;;;;;;;;5038343;28;20060;-50
2022/01/16 09:36:01;;;;;;;21.10;3.58;;;;;;;;;;5040383;28;20812;-51
2022/01/16 09:38:26;;;;;;;30.10;3.70;;;;;;;;;;5038556;28;20394;-49
2022/01/16 09:40:52;;;;;;;22.42;3.63;;;;;;;;;;5044120;28;20059;-50
2022/01/16 09:43:18;;;;;;;22.40;2.92;;;;;;;;;;5041331;28;20029;-51
2022/01/16 09:45:44;;;;;;;32.03;4.22;;;;;;;;;;5044402;28;20060;-52
2022/01/16 09:48:09;;;;;;;28.75;3.60;;;;;;;;;;5033629;28;20393;-49
2022/01/16 09:50:35;;;;;;;24.45;3.33;;;;;;;;;;5043208;28;20372;-51
2022/01/16 09:53:02;;;;;;;21.05;3.13;;;;;;;;;;5043874;28;20032;-50
2022/01/16 09:55:28;;;;;;;20.92;2.65;;;;;;;;;;5043911;28;20040;-52
2022/01/16 09:57:57;;;;;;;21.77;2.95;;;;;;;;;;5039713;28;20028;-53
2022/01/16 10:00:24;;;;;;;22.80;2.80;;;;;;;;;;5043113;28;20115;-52
2022/01/16 10:02:51;;;;;;;28.88;2.97;;;;;;;;;;5040967;28;20060;-52
2022/01/16 10:05:34;;;;;;;19.42;2.35;;;;;;;;;;5039289;28;20036;-50
2022/01/16 10:08:02;;;;;;;36.35;3.20;;;;;;;;;;5042238;28;20033;-49
2022/01/16 10:10:37;;;;;;;25.83;2.50;;;;;;;;;;5039502;28;20552;-48
2022/01/16 10:13:25;;;;;;;34.53;3.72;;;;;;;;;;5039362;28;20025;-52
2022/01/16 10:15:55;;;;;;;24.77;2.42;;;;;;;;;;5040110;28;20123;-52
2022/01/16 10:18:36;;;;;;;35.88;2.85;;;;;;;;;;5039203;28;20032;-49
2022/01/16 10:21:02;;;;;;;25.25;2.55;;;;;;;;;;5042470;28;20620;-49
2022/01/16 10:23:28;;;;;;;20.70;1.85;;;;;;;;;;5042615;28;20029;-52
2022/01/16 10:25:53;;;;;;;31.00;4.38;;;;;;;;;;5043201;28;20052;-52
2022/01/16 10:28:24;;;;;;;19.17;2.75;;;;;;;;;;5036246;28;20108;-49
2022/01/16 10:30:58;;;;;;;27.50;3.25;;;;;;;;;;5044858;28;20543;-49
2022/01/16 10:33:32;;;;;;;38.78;3.95;;;;;;;;;;5040119;28;20029;-50
2022/01/16 10:35:57;;;;;;;38.90;3.55;;;;;;;;;;5040708;28;20037;-49
2022/01/16 10:38:24;;;;;;;30.65;3.47;;;;;;;;;;5038386;28;20091;-49
2022/01/16 10:40:51;;;;;;;32.92;5.00;;;;;;;;;;5041996;28;20028;-49
2022/01/16 10:43:35;;;;;;;23.88;3.30;;;;;;;;;;5040639;28;20028;-51
2022/01/16 10:46:01;;;;;;;26.60;3.30;;;;;;;;;;5043552;28;20287;-52
2022/01/16 10:48:27;;;;;;;24.38;3.25;;;;;;;;;;5037538;28;20683;-49
2022/01/16 10:50:52;;;;;;;35.50;2.75;;;;;;;;;;5041632;28;20119;-51
2022/01/16 10:53:24;;;;;;;20.75;3.40;;;;;;;;;;5040262;28;20064;-50
2022/01/16 10:55:53;;;;;;;38.17;3.95;;;;;;;;;;5036045;28;20025;-48
2022/01/16 10:58:38;;;;;;;31.52;3.10;;;;;;;;;;5038860;28;20051;-49
2022/01/16 11:01:10;;;;;;;22.45;2.55;;;;;;;;;;5042364;28;20040;-48
2022/01/16 11:03:42;;;;;;;21.45;3.08;;;;;;;;;;5038189;28;20312;-51
2022/01/16 11:06:08;;;;;;;28.55;2.78;;;;;;;;;;5041551;28;20439;-49
2022/01/16 11:08:34;;;;;;;30.58;3.33;;;;;;;;;;5037481;28;20025;-52
2022/01/16 11:11:00;;;;;;;26.48;2.20;;;;;;;;;;5041447;28;20033;-50
2022/01/16 11:13:30;;;;;;;12.38;2.20;;;;;;;;;;5042247;28;20615;-50
2022/01/16 11:15:58;;;;;;;41.67;4.63;;;;;;;;;;5042888;28;20033;-51
2022/01/16 11:18:25;;;;;;;22.77;3.78;;;;;;;;;;5040147;28;20048;-52
2022/01/16 11:21:03;;;;;;;41.05;3.17;;;;;;;;;;5040574;28;20037;-52
2022/01/16 11:23:46;;;;;;;32.97;2.83;;;;;;;;;;5040041;28;20032;-53
2022/01/16 11:26:13;;;;;;;28.92;2.88;;;;;;;;;;5045637;28;20225;-52
2022/01/16 11:28:39;;;;;;;20.75;2.70;;;;;;;;;;5042591;28;20477;-49
2022/01/16 11:31:09;;;;;;;20.73;2.88;;;;;;;;;;5044319;28;20591;-50
2022/01/16 11:33:36;;;;;;;30.92;3.00;;;;;;;;;;5044431;28;20048;-51
2022/01/16 11:36:16;;;;;;;22.10;2.38;;;;;;;;;;5046918;28;20071;-52
2022/01/16 11:38:49;;;;;;;35.78;3.55;;;;;;;;;;5045723;28;20059;-50
2022/01/16 11:41:24;;;;;;;40.80;3.55;;;;;;;;;;5044729;28;20028;-52
2022/01/16 11:43:54;;;;;;;42.30;3.47;;;;;;;;;;5047376;28;20029;-52
2022/01/16 11:46:22;;;;;;;20.25;2.03;;;;;;;;;;5043794;28;20117;-52
2022/01/16 11:48:50;;;;;;;31.63;3.67;;;;;;;;;;5044719;28;20563;-52
2022/01/16 11:51:40;;;;;;;25.65;2.60;;;;;;;;;;5043072;28;20094;-50
2022/01/16 11:54:07;;;;;;;34.97;3.75;;;;;;;;;;5044199;28;20120;-51
2022/01/16 11:56:39;;;;;;;34.83;3.80;;;;;;;;;;5043285;28;20040;-50
2022/01/16 11:59:28;;;;;;;29.83;3.30;;;;;;;;;;5044174;28;20403;-53
2022/01/16 12:01:53;;;;;;;24.42;2.90;;;;;;;;;;5043241;28;20043;-51
2022/01/16 12:04:31;;;;;;;38.65;3.80;;;;;;;;;;5045184;28;20458;-51
2022/01/16 12:07:21;;;;;;;33.97;3.53;;;;;;;;;;5045238;28;20028;-52
2022/01/16 12:09:49;;;;;;;30.33;2.42;;;;;;;;;;5037235;28;20447;-50
2022/01/16 12:12:15;;;;;;;34.15;2.63;;;;;;;;;;5045031;28;20043;-48
2022/01/16 12:14:59;;;;;;;30.85;3.08;;;;;;;;;;5039285;28;20029;-49
2022/01/16 12:20:17;;;;;;;28.58;2.92;;;;;;;;;;5039212;28;20032;-51
2022/01/16 12:22:50;;;;;;;44.20;3.67;;;;;;;;;;5042398;28;20033;-53
2022/01/16 12:25:22;;;;;;;26.17;3.22;;;;;;;;;;5037799;28;20064;-52
2022/01/16 12:27:52;;;;;;;31.90;4.95;;;;;;;;;;5048501;28;20025;-51
2022/01/16 12:30:35;;;;;;;38.70;4.30;;;;;;;;;;5039390;28;20044;-48
2022/01/16 12:33:16;;;;;;;29.77;3.63;;;;;;;;;;5041986;28;20492;-50
2022/01/16 12:35:46;;;;;;;32.13;3.92;;;;;;;;;;5034538;28;20095;-52
2022/01/16 12:38:17;;;;;;;32.90;4.03;;;;;;;;;;5041552;28;20514;-51
2022/01/16 12:40:52;;;;;;;29.80;4.25;;;;;;;;;;5033641;28;21339;-53
2022/01/16 12:45:54;;;;;;;29.33;4.85;;;;;;;;;;5046604;28;20045;-52
2022/01/16 12:48:19;;;;;;;38.38;5.95;;;;;;;;;;5038517;28;20500;-50
2022/01/16 12:50:46;;;;;;;25.42;4.78;;;;;;;;;;5040600;28;20047;-52
2022/01/16 12:53:11;;;;;;;28.80;4.70;;;;;;;;;;5042399;28;20044;-53
2022/01/16 12:55:37;;;;;;;36.35;5.93;;;;;;;;;;5038350;28;20037;-53
2022/01/16 12:58:18;;;;;;;20.75;4.18;;;;;;;;;;5037715;28;20102;-50
2022/01/16 13:01:03;;;;;;;26.65;3.78;;;;;;;;;;5035608;28;20371;-50
2022/01/16 13:03:30;;;;;;;26.65;4.13;;;;;;;;;;5042040;28;20068;-51
2022/01/16 13:06:23;;;;;;;21.02;3.65;;;;;;;;;;5037518;28;20051;-49
2022/01/16 13:08:53;;;;;;;29.63;3.40;;;;;;;;;;5039524;28;20291;-51
2022/01/16 13:11:19;;;;;;;32.22;3.35;;;;;;;;;;5040306;28;20059;-52
2022/01/16 13:13:47;;;;;;;35.63;4.03;;;;;;;;;;5068984;28;20539;-51
2022/01/16 13:16:19;;;;;;;27.88;4.32;;;;;;;;;;5039034;28;20973;-51
2022/01/16 13:19:03;;;;;;;;;;;;;;;;;;5038642;28;20028;-51
2022/01/16 13:21:42;;;;;;;27.95;4.18;;;;;;;;;;5037950;28;20474;-51
2022/01/16 13:24:08;;;;;;;32.13;3.60;;;;;;;;;;5036717;28;20037;-51
2022/01/16 13:26:34;;;;;;;28.20;4.60;;;;;;;;;;5039485;28;20115;-51
2022/01/16 13:29:09;;;;;;;33.90;4.70;;;;;;;;;;5041864;28;20044;-48
2022/01/16 13:31:36;;;;;;;35.35;5.45;;;;;;;;;;5036000;28;20443;-47
2022/01/16 13:34:35;;;;;;;30.55;5.43;;;;;;;;;;5037317;28;20032;-48
2022/01/16 13:37:02;;;;;;;30.25;4.55;;;;;;;;;;5040053;28;20123;-49
2022/01/16 13:39:46;;;;;;;23.63;3.40;;;;;;;;;;5040573;28;20048;-48
2022/01/16 13:42:30;;;;;;;29.73;3.15;;;;;;;;;;5042399;28;20028;-49
2022/01/16 13:45:24;;;;;;;21.13;3.55;;;;;;;;;;5034654;28;20049;-48
2022/01/16 13:48:07;;;;;;;25.85;3.28;;;;;;;;;;5037034;28;20041;-51
2022/01/16 13:50:41;;;;;;;24.08;3.70;;;;;;;;;;5037886;28;20491;-48
2022/01/16 13:53:12;;;;;;;24.30;4.70;;;;;;;;;;5042498;28;20198;-49
2022/01/16 13:56:00;;;;;;;36.42;5.22;;;;;;;;;;5040086;28;20067;-48
2022/01/16 13:58:28;;;;;;;34.55;3.83;;;;;;;;;;5037890;28;20029;-50
2022/01/16 14:00:58;;;;;;;32.95;4.70;;;;;;;;;;5043588;28;20283;-48
2022/01/16 14:03:26;;;;;;;35.60;3.78;;;;;;;;;;5033592;28;20024;-48
2022/01/16 14:05:55;;;;;;;38.00;5.38;;;;;;;;;;5034785;28;20040;-48
2022/01/16 14:08:29;;;;;;;20.95;3.33;;;;;;;;;;5037500;28;20029;-48
2022/01/16 14:11:16;;;;;;;29.58;3.08;;;;;;;;;;5039073;28;20039;-50
2022/01/16 14:14:00;;;;;;;31.13;4.13;;;;;;;;;;5039821;28;20047;-49
2022/01/16 14:19:35;;;;;;;23.05;3.40;;;;;;;;;;5035340;28;20132;-52
2022/01/16 14:22:10;;;;;;;42.47;6.55;;;;;;;;;;5035296;28;20095;-51
2022/01/16 14:24:38;;;;;;;36.10;5.00;;;;;;;;;;5038116;28;20037;-48
2022/01/16 14:27:08;;;;;;;25.45;4.25;;;;;;;;;;5036120;28;20028;-50
2022/01/16 14:29:37;;;;;;;29.63;3.67;;;;;;;;;;5039850;28;20106;-52
2022/01/16 14:32:04;;;;;;;41.88;4.60;;;;;;;;;;5045184;28;20025;-48
2022/01/16 14:34:29;;;;;;;29.08;4.30;;;;;;;;;;5035523;28;20127;-51
2022/01/16 14:36:56;;;;;;;26.15;3.70;;;;;;;;;;5038030;28;20566;-48
2022/01/16 14:39:23;;;;;;;18.50;3.42;;;;;;;;;;5035442;28;20123;-51
2022/01/16 14:41:51;;;;;;;21.98;2.78;;;;;;;;;;5039566;28;20492;-50
2022/01/16 14:44:19;;;;;;;29.55;4.28;;;;;;;;;;5040267;28;20033;-51
2022/01/16 14:46:46;;;;;;;28.65;4.15;;;;;;;;;;5039700;28;20104;-50
2022/01/16 14:49:12;;;;;;;38.30;3.70;;;;;;;;;;5038217;28;20507;-47
2022/01/16 14:51:38;;;;;;;30.98;4.15;;;;;;;;;;5039252;28;20554;-47
2022/01/16 14:54:05;;;;;;;22.27;2.92;;;;;;;;;;5039505;28;20123;-47
2022/01/16 14:56:31;;;;;;;31.38;3.22;;;;;;;;;;5036341;28;20025;-48
2022/01/16 14:58:57;;;;;;;20.23;4.03;;;;;;;;;;5033664;28;20029;-48
2022/01/16 15:01:23;;;;;;;32.70;3.92;;;;;;;;;;5035476;28;20171;-47
2022/01/16 15:03:48;;;;;;;33.50;4.82;;;;;;;;;;5033533;28;20128;-50
2022/01/16 15:06:14;;;;;;;27.20;3.90;;;;;;;;;;5034897;28;20036;-51
2022/01/16 15:08:42;;;;;;;43.40;5.05;;;;;;;;;;5036547;28;20519;-49
2022/01/16 15:11:09;;;;;;;27.33;4.13;;;;;;;;;;5038699;28;20036;-51
2022/01/16 15:13:35;;;;;;;27.25;4.28;;;;;;;;;;5040329;28;20032;-54
2022/01/16 15:16:02;;;;;;;23.13;4.95;;;;;;;;;;5037896;28;20040;-50
2022/01/16 15:18:29;;;;;;;22.33;4.00;;;;;;;;;;5040195;28;20120;-50
2022/01/16 15:20:57;;;;;;;34.42;4.72;;;;;;;;;;5037398;28;20056;-51
2022/01/16 15:23:24;;;;;;;24.33;4.10;;;;;;;;;;5039263;28;20033;-51